Bowen, Argentina
Current Conditions -  °F | °C
As of 6:00 PM on Thursday 20 Nov 2014 (Local Time) from SAME Reporting Station
Scattered Clouds Scattered Clouds  
Wind Chill: 22°   Ceiling: Unl
Heat Index: 22°   Visibility: 6mi
Dew Point:   Wind: 10mph
Humidity: 41%   Direction: 140°SE
Pressure: 29.83"   Gusts: NA
Location:  35°S, 67.52°W
Report Text: SAME 202100Z 14009KT 9999 FEW045CB SCT050 22/08 Q1010
Loading
Personal Weather Stations






























Interactive Weather Map New forecast layout! Learn more

10-Day Weather Forecast

Advertisements
Track Severe Weather on mobile